sensor_id;sensor_type;location;lat;lon;timestamp;P1;durP1;ratioP1;P2;durP2;ratioP2
57891;SDS011;43708;48.828;9.166;2023-03-26T00:00:03;0.57;;;0.40;;
57891;SDS011;43708;48.828;9.166;2023-03-26T00:02:30;0.93;;;0.50;;
57891;SDS011;43708;48.828;9.166;2023-03-26T00:04:55;1.00;;;0.45;;
57891;SDS011;43708;48.828;9.166;2023-03-26T00:07:21;0.95;;;0.40;;
57891;SDS011;43708;48.828;9.166;2023-03-26T00:09:46;1.10;;;0.57;;
57891;SDS011;43708;48.828;9.166;2023-03-26T00:12:12;1.25;;;0.45;;
57891;SDS011;43708;48.828;9.166;2023-03-26T00:14:38;0.40;;;0.30;;
57891;SDS011;43708;48.828;9.166;2023-03-26T00:17:04;0.65;;;0.28;;
57891;SDS011;43708;48.828;9.166;2023-03-26T00:19:32;0.75;;;0.40;;
57891;SDS011;43708;48.828;9.166;2023-03-26T00:21:59;1.02;;;0.28;;
57891;SDS011;43708;48.828;9.166;2023-03-26T00:24:24;0.30;;;0.20;;
57891;SDS011;43708;48.828;9.166;2023-03-26T00:26:53;0.60;;;0.30;;
57891;SDS011;43708;48.828;9.166;2023-03-26T00:29:19;0.52;;;0.30;;
57891;SDS011;43708;48.828;9.166;2023-03-26T00:31:47;0.82;;;0.38;;
57891;SDS011;43708;48.828;9.166;2023-03-26T00:34:13;0.65;;;0.30;;
57891;SDS011;43708;48.828;9.166;2023-03-26T00:36:42;0.30;;;0.15;;
57891;SDS011;43708;48.828;9.166;2023-03-26T00:39:10;0.35;;;0.30;;
57891;SDS011;43708;48.828;9.166;2023-03-26T00:41:36;0.32;;;0.30;;
57891;SDS011;43708;48.828;9.166;2023-03-26T00:44:06;0.40;;;0.40;;
57891;SDS011;43708;48.828;9.166;2023-03-26T00:46:32;0.35;;;0.25;;
57891;SDS011;43708;48.828;9.166;2023-03-26T00:48:58;0.50;;;0.30;;
57891;SDS011;43708;48.828;9.166;2023-03-26T00:51:26;0.50;;;0.25;;
57891;SDS011;43708;48.828;9.166;2023-03-26T00:53:52;0.43;;;0.30;;
57891;SDS011;43708;48.828;9.166;2023-03-26T00:56:18;0.50;;;0.20;;
57891;SDS011;43708;48.828;9.166;2023-03-26T00:58:43;0.30;;;0.10;;
57891;SDS011;43708;48.828;9.166;2023-03-26T01:01:14;0.63;;;0.40;;
57891;SDS011;43708;48.828;9.166;2023-03-26T01:03:43;0.82;;;0.30;;
57891;SDS011;43708;48.828;9.166;2023-03-26T01:06:11;0.30;;;0.20;;
57891;SDS011;43708;48.828;9.166;2023-03-26T01:08:43;0.43;;;0.20;;
57891;SDS011;43708;48.828;9.166;2023-03-26T01:11:17;0.40;;;0.20;;
57891;SDS011;43708;48.828;9.166;2023-03-26T01:13:50;0.50;;;0.50;;
57891;SDS011;43708;48.828;9.166;2023-03-26T01:16:26;0.75;;;0.45;;
57891;SDS011;43708;48.828;9.166;2023-03-26T01:19:01;0.43;;;0.15;;
57891;SDS011;43708;48.828;9.166;2023-03-26T01:21:28;1.10;;;0.35;;
57891;SDS011;43708;48.828;9.166;2023-03-26T01:23:58;0.50;;;0.20;;
57891;SDS011;43708;48.828;9.166;2023-03-26T01:27:08;0.60;;;0.28;;
57891;SDS011;43708;48.828;9.166;2023-03-26T01:29:28;0.30;;;0.20;;
57891;SDS011;43708;48.828;9.166;2023-03-26T01:31:58;0.70;;;0.40;;
57891;SDS011;43708;48.828;9.166;2023-03-26T01:34:48;0.80;;;0.55;;
57891;SDS011;43708;48.828;9.166;2023-03-26T01:37:49;0.60;;;0.30;;
57891;SDS011;43708;48.828;9.166;2023-03-26T01:40:22;0.68;;;0.40;;
57891;SDS011;43708;48.828;9.166;2023-03-26T01:42:59;0.57;;;0.30;;
57891;SDS011;43708;48.828;9.166;2023-03-26T01:45:28;0.30;;;0.25;;
57891;SDS011;43708;48.828;9.166;2023-03-26T01:47:57;0.85;;;0.40;;
57891;SDS011;43708;48.828;9.166;2023-03-26T01:50:23;0.65;;;0.38;;
57891;SDS011;43708;48.828;9.166;2023-03-26T01:52:50;0.40;;;0.40;;
57891;SDS011;43708;48.828;9.166;2023-03-26T01:55:15;0.60;;;0.30;;
57891;SDS011;43708;48.828;9.166;2023-03-26T01:57:53;0.43;;;0.30;;
57891;SDS011;43708;48.828;9.166;2023-03-26T02:00:45;0.30;;;0.20;;
57891;SDS011;43708;48.828;9.166;2023-03-26T02:03:35;0.60;;;0.47;;
57891;SDS011;43708;48.828;9.166;2023-03-26T02:06:30;0.68;;;0.30;;
57891;SDS011;43708;48.828;9.166;2023-03-26T02:09:06;0.50;;;0.30;;
57891;SDS011;43708;48.828;9.166;2023-03-26T02:11:35;0.88;;;0.38;;
57891;SDS011;43708;48.828;9.166;2023-03-26T02:14:05;0.93;;;0.45;;
57891;SDS011;43708;48.828;9.166;2023-03-26T02:16:32;0.43;;;0.30;;
57891;SDS011;43708;48.828;9.166;2023-03-26T02:18:58;0.30;;;0.20;;
57891;SDS011;43708;48.828;9.166;2023-03-26T02:21:25;0.50;;;0.40;;
57891;SDS011;43708;48.828;9.166;2023-03-26T02:23:52;1.65;;;0.40;;
57891;SDS011;43708;48.828;9.166;2023-03-26T02:26:27;1.13;;;0.45;;
57891;SDS011;43708;48.828;9.166;2023-03-26T02:28:55;0.35;;;0.15;;
57891;SDS011;43708;48.828;9.166;2023-03-26T02:31:21;0.43;;;0.28;;
57891;SDS011;43708;48.828;9.166;2023-03-26T02:33:50;0.43;;;0.30;;
57891;SDS011;43708;48.828;9.166;2023-03-26T02:36:16;0.57;;;0.38;;
57891;SDS011;43708;48.828;9.166;2023-03-26T02:38:48;0.50;;;0.40;;
57891;SDS011;43708;48.828;9.166;2023-03-26T02:41:13;0.80;;;0.30;;
57891;SDS011;43708;48.828;9.166;2023-03-26T02:43:39;0.73;;;0.30;;
57891;SDS011;43708;48.828;9.166;2023-03-26T02:46:05;1.05;;;0.30;;
57891;SDS011;43708;48.828;9.166;2023-03-26T02:48:30;0.68;;;0.32;;
57891;SDS011;43708;48.828;9.166;2023-03-26T02:50:58;0.60;;;0.40;;
57891;SDS011;43708;48.828;9.166;2023-03-26T02:53:25;0.70;;;0.43;;
57891;SDS011;43708;48.828;9.166;2023-03-26T02:55:53;0.55;;;0.30;;
57891;SDS011;43708;48.828;9.166;2023-03-26T02:58:22;0.80;;;0.40;;
57891;SDS011;43708;48.828;9.166;2023-03-26T03:00:49;0.50;;;0.22;;
57891;SDS011;43708;48.828;9.166;2023-03-26T03:03:18;0.60;;;0.30;;
57891;SDS011;43708;48.828;9.166;2023-03-26T03:05:48;0.40;;;0.30;;
57891;SDS011;43708;48.828;9.166;2023-03-26T03:08:17;0.30;;;0.30;;
57891;SDS011;43708;48.828;9.166;2023-03-26T03:10:53;0.45;;;0.30;;
57891;SDS011;43708;48.828;9.166;2023-03-26T03:13:20;0.30;;;0.20;;
57891;SDS011;43708;48.828;9.166;2023-03-26T03:15:46;0.63;;;0.40;;
57891;SDS011;43708;48.828;9.166;2023-03-26T03:18:12;0.43;;;0.40;;
57891;SDS011;43708;48.828;9.166;2023-03-26T03:20:37;0.68;;;0.40;;
57891;SDS011;43708;48.828;9.166;2023-03-26T03:23:03;0.50;;;0.30;;
57891;SDS011;43708;48.828;9.166;2023-03-26T03:25:28;0.82;;;0.30;;
57891;SDS011;43708;48.828;9.166;2023-03-26T03:27:54;0.40;;;0.30;;
57891;SDS011;43708;48.828;9.166;2023-03-26T03:30:19;0.60;;;0.40;;
57891;SDS011;43708;48.828;9.166;2023-03-26T03:32:45;0.60;;;0.32;;
57891;SDS011;43708;48.828;9.166;2023-03-26T03:35:11;0.40;;;0.40;;
57891;SDS011;43708;48.828;9.166;2023-03-26T03:37:38;1.00;;;0.47;;
57891;SDS011;43708;48.828;9.166;2023-03-26T03:40:04;0.60;;;0.30;;
57891;SDS011;43708;48.828;9.166;2023-03-26T03:42:31;0.45;;;0.30;;
57891;SDS011;43708;48.828;9.166;2023-03-26T03:44:57;0.40;;;0.20;;
57891;SDS011;43708;48.828;9.166;2023-03-26T03:47:22;0.73;;;0.30;;
57891;SDS011;43708;48.828;9.166;2023-03-26T03:49:48;0.38;;;0.28;;
57891;SDS011;43708;48.828;9.166;2023-03-26T03:52:14;0.40;;;0.20;;
57891;SDS011;43708;48.828;9.166;2023-03-26T03:54:40;0.40;;;0.20;;
57891;SDS011;43708;48.828;9.166;2023-03-26T03:57:06;0.88;;;0.40;;
57891;SDS011;43708;48.828;9.166;2023-03-26T03:59:31;0.63;;;0.40;;
57891;SDS011;43708;48.828;9.166;2023-03-26T04:01:57;1.00;;;0.30;;
57891;SDS011;43708;48.828;9.166;2023-03-26T04:04:22;0.40;;;0.30;;
57891;SDS011;43708;48.828;9.166;2023-03-26T04:06:49;0.52;;;0.30;;
57891;SDS011;43708;48.828;9.166;2023-03-26T04:09:15;1.17;;;0.50;;
57891;SDS011;43708;48.828;9.166;2023-03-26T04:11:41;0.57;;;0.38;;
57891;SDS011;43708;48.828;9.166;2023-03-26T04:14:06;0.30;;;0.20;;
57891;SDS011;43708;48.828;9.166;2023-03-26T04:16:32;0.52;;;0.28;;
57891;SDS011;43708;48.828;9.166;2023-03-26T04:18:57;0.75;;;0.30;;
57891;SDS011;43708;48.828;9.166;2023-03-26T04:21:26;0.47;;;0.20;;
57891;SDS011;43708;48.828;9.166;2023-03-26T04:23:54;0.30;;;0.22;;
57891;SDS011;43708;48.828;9.166;2023-03-26T04:26:20;0.40;;;0.30;;
57891;SDS011;43708;48.828;9.166;2023-03-26T04:28:47;1.30;;;0.40;;
57891;SDS011;43708;48.828;9.166;2023-03-26T04:31:17;0.50;;;0.30;;
57891;SDS011;43708;48.828;9.166;2023-03-26T04:33:48;0.40;;;0.20;;
57891;SDS011;43708;48.828;9.166;2023-03-26T04:36:18;0.50;;;0.30;;
57891;SDS011;43708;48.828;9.166;2023-03-26T04:38:51;0.40;;;0.30;;
57891;SDS011;43708;48.828;9.166;2023-03-26T04:41:17;1.17;;;0.40;;
57891;SDS011;43708;48.828;9.166;2023-03-26T04:43:43;0.43;;;0.28;;
57891;SDS011;43708;48.828;9.166;2023-03-26T04:46:20;0.50;;;0.38;;
57891;SDS011;43708;48.828;9.166;2023-03-26T04:48:47;0.57;;;0.32;;
57891;SDS011;43708;48.828;9.166;2023-03-26T04:51:18;0.30;;;0.20;;
57891;SDS011;43708;48.828;9.166;2023-03-26T04:53:50;0.75;;;0.30;;
57891;SDS011;43708;48.828;9.166;2023-03-26T04:56:33;0.52;;;0.30;;
57891;SDS011;43708;48.828;9.166;2023-03-26T04:59:07;0.40;;;0.20;;
57891;SDS011;43708;48.828;9.166;2023-03-26T05:01:38;0.50;;;0.30;;
57891;SDS011;43708;48.828;9.166;2023-03-26T05:04:03;0.50;;;0.30;;
57891;SDS011;43708;48.828;9.166;2023-03-26T05:06:29;0.45;;;0.30;;
57891;SDS011;43708;48.828;9.166;2023-03-26T05:08:58;0.40;;;0.25;;
57891;SDS011;43708;48.828;9.166;2023-03-26T05:11:26;0.68;;;0.40;;
57891;SDS011;43708;48.828;9.166;2023-03-26T05:13:52;0.40;;;0.30;;
57891;SDS011;43708;48.828;9.166;2023-03-26T05:16:18;0.65;;;0.30;;
57891;SDS011;43708;48.828;9.166;2023-03-26T05:18:44;0.40;;;0.30;;
57891;SDS011;43708;48.828;9.166;2023-03-26T05:21:10;0.50;;;0.30;;
57891;SDS011;43708;48.828;9.166;2023-03-26T05:23:36;0.40;;;0.30;;
57891;SDS011;43708;48.828;9.166;2023-03-26T05:26:02;0.75;;;0.43;;
57891;SDS011;43708;48.828;9.166;2023-03-26T05:28:31;0.45;;;0.40;;
57891;SDS011;43708;48.828;9.166;2023-03-26T05:30:57;0.60;;;0.28;;
57891;SDS011;43708;48.828;9.166;2023-03-26T05:33:22;0.60;;;0.30;;
57891;SDS011;43708;48.828;9.166;2023-03-26T05:35:57;0.40;;;0.20;;
57891;SDS011;43708;48.828;9.166;2023-03-26T05:38:34;1.00;;;0.30;;
57891;SDS011;43708;48.828;9.166;2023-03-26T05:41:00;0.50;;;0.35;;
57891;SDS011;43708;48.828;9.166;2023-03-26T05:43:28;0.60;;;0.30;;
57891;SDS011;43708;48.828;9.166;2023-03-26T05:45:56;0.30;;;0.25;;
57891;SDS011;43708;48.828;9.166;2023-03-26T05:48:22;0.65;;;0.50;;
57891;SDS011;43708;48.828;9.166;2023-03-26T05:50:48;0.65;;;0.30;;
57891;SDS011;43708;48.828;9.166;2023-03-26T05:53:15;0.30;;;0.25;;
57891;SDS011;43708;48.828;9.166;2023-03-26T05:55:42;0.70;;;0.30;;
57891;SDS011;43708;48.828;9.166;2023-03-26T05:58:10;1.10;;;0.30;;
57891;SDS011;43708;48.828;9.166;2023-03-26T06:00:36;0.47;;;0.30;;
57891;SDS011;43708;48.828;9.166;2023-03-26T06:03:02;0.45;;;0.30;;
57891;SDS011;43708;48.828;9.166;2023-03-26T06:05:30;0.47;;;0.40;;
57891;SDS011;43708;48.828;9.166;2023-03-26T06:08:01;0.68;;;0.30;;
57891;SDS011;43708;48.828;9.166;2023-03-26T06:10:27;0.70;;;0.40;;
57891;SDS011;43708;48.828;9.166;2023-03-26T06:12:52;0.60;;;0.20;;
57891;SDS011;43708;48.828;9.166;2023-03-26T06:15:18;0.30;;;0.30;;
57891;SDS011;43708;48.828;9.166;2023-03-26T06:17:44;0.82;;;0.60;;
57891;SDS011;43708;48.828;9.166;2023-03-26T06:20:10;0.40;;;0.30;;
57891;SDS011;43708;48.828;9.166;2023-03-26T06:22:36;0.35;;;0.25;;
57891;SDS011;43708;48.828;9.166;2023-03-26T06:25:02;0.65;;;0.30;;
57891;SDS011;43708;48.828;9.166;2023-03-26T06:27:28;0.50;;;0.40;;
57891;SDS011;43708;48.828;9.166;2023-03-26T06:29:54;0.75;;;0.30;;
57891;SDS011;43708;48.828;9.166;2023-03-26T06:32:20;0.70;;;0.28;;
57891;SDS011;43708;48.828;9.166;2023-03-26T06:34:45;0.50;;;0.50;;
57891;SDS011;43708;48.828;9.166;2023-03-26T06:37:11;1.00;;;0.60;;
57891;SDS011;43708;48.828;9.166;2023-03-26T06:39:37;1.60;;;0.47;;
57891;SDS011;43708;48.828;9.166;2023-03-26T06:42:03;0.60;;;0.40;;
57891;SDS011;43708;48.828;9.166;2023-03-26T06:44:29;0.90;;;0.55;;
57891;SDS011;43708;48.828;9.166;2023-03-26T06:46:54;0.60;;;0.40;;
57891;SDS011;43708;48.828;9.166;2023-03-26T06:49:20;0.65;;;0.40;;
57891;SDS011;43708;48.828;9.166;2023-03-26T06:51:46;0.50;;;0.22;;
57891;SDS011;43708;48.828;9.166;2023-03-26T06:54:11;0.40;;;0.28;;
57891;SDS011;43708;48.828;9.166;2023-03-26T06:56:38;0.60;;;0.40;;
57891;SDS011;43708;48.828;9.166;2023-03-26T06:59:03;0.40;;;0.30;;
57891;SDS011;43708;48.828;9.166;2023-03-26T07:01:29;0.50;;;0.20;;
57891;SDS011;43708;48.828;9.166;2023-03-26T07:03:55;1.60;;;0.40;;
57891;SDS011;43708;48.828;9.166;2023-03-26T07:06:20;0.70;;;0.30;;
57891;SDS011;43708;48.828;9.166;2023-03-26T07:08:46;0.85;;;0.50;;
57891;SDS011;43708;48.828;9.166;2023-03-26T07:11:12;0.40;;;0.30;;
57891;SDS011;43708;48.828;9.166;2023-03-26T07:13:38;1.30;;;0.50;;
57891;SDS011;43708;48.828;9.166;2023-03-26T07:16:04;0.40;;;0.40;;
57891;SDS011;43708;48.828;9.166;2023-03-26T07:18:31;0.73;;;0.45;;
57891;SDS011;43708;48.828;9.166;2023-03-26T07:20:56;0.75;;;0.40;;
57891;SDS011;43708;48.828;9.166;2023-03-26T07:23:22;2.25;;;0.45;;
57891;SDS011;43708;48.828;9.166;2023-03-26T07:25:48;1.33;;;0.50;;
57891;SDS011;43708;48.828;9.166;2023-03-26T07:28:30;2.53;;;0.30;;
57891;SDS011;43708;48.828;9.166;2023-03-26T07:31:15;0.77;;;0.50;;
57891;SDS011;43708;48.828;9.166;2023-03-26T07:36:16;0.85;;;0.45;;
57891;SDS011;43708;48.828;9.166;2023-03-26T07:38:51;2.05;;;0.40;;
57891;SDS011;43708;48.828;9.166;2023-03-26T07:44:20;0.85;;;0.40;;
57891;SDS011;43708;48.828;9.166;2023-03-26T07:46:56;0.60;;;0.50;;
57891;SDS011;43708;48.828;9.166;2023-03-26T07:49:24;0.90;;;0.40;;
57891;SDS011;43708;48.828;9.166;2023-03-26T07:51:51;1.13;;;0.45;;
57891;SDS011;43708;48.828;9.166;2023-03-26T07:54:16;0.55;;;0.35;;
57891;SDS011;43708;48.828;9.166;2023-03-26T07:56:52;1.95;;;0.63;;
57891;SDS011;43708;48.828;9.166;2023-03-26T07:59:28;0.68;;;0.40;;
57891;SDS011;43708;48.828;9.166;2023-03-26T08:13:55;0.68;;;0.40;;
57891;SDS011;43708;48.828;9.166;2023-03-26T08:25:13;0.75;;;0.60;;
57891;SDS011;43708;48.828;9.166;2023-03-26T08:27:50;1.73;;;1.35;;
57891;SDS011;43708;48.828;9.166;2023-03-26T08:30:38;1.67;;;1.40;;
57891;SDS011;43708;48.828;9.166;2023-03-26T08:33:09;3.28;;;2.47;;
57891;SDS011;43708;48.828;9.166;2023-03-26T08:35:36;2.40;;;1.60;;
57891;SDS011;43708;48.828;9.166;2023-03-26T08:38:09;2.50;;;2.30;;
57891;SDS011;43708;48.828;9.166;2023-03-26T08:49:25;2.30;;;2.05;;
57891;SDS011;43708;48.828;9.166;2023-03-26T08:52:35;3.88;;;2.00;;
57891;SDS011;43708;48.828;9.166;2023-03-26T09:00:43;2.97;;;2.22;;
57891;SDS011;43708;48.828;9.166;2023-03-26T09:12:00;4.85;;;3.20;;
57891;SDS011;43708;48.828;9.166;2023-03-26T09:20:51;4.78;;;3.65;;
57891;SDS011;43708;48.828;9.166;2023-03-26T09:33:55;7.28;;;4.00;;
57891;SDS011;43708;48.828;9.166;2023-03-26T09:39:09;4.05;;;2.78;;
57891;SDS011;43708;48.828;9.166;2023-03-26T09:41:42;4.00;;;2.80;;
57891;SDS011;43708;48.828;9.166;2023-03-26T09:44:35;5.53;;;3.40;;
57891;SDS011;43708;48.828;9.166;2023-03-26T09:47:22;6.13;;;3.70;;
57891;SDS011;43708;48.828;9.166;2023-03-26T09:55:48;3.80;;;1.92;;
57891;SDS011;43708;48.828;9.166;2023-03-26T09:58:52;4.05;;;2.63;;
57891;SDS011;43708;48.828;9.166;2023-03-26T10:21:27;4.30;;;2.03;;
57891;SDS011;43708;48.828;9.166;2023-03-26T10:27:10;2.45;;;2.22;;
57891;SDS011;43708;48.828;9.166;2023-03-26T10:32:50;2.88;;;1.90;;
57891;SDS011;43708;48.828;9.166;2023-03-26T10:35:35;2.42;;;1.63;;
57891;SDS011;43708;48.828;9.166;2023-03-26T10:38:17;2.65;;;1.95;;
57891;SDS011;43708;48.828;9.166;2023-03-26T10:52:14;2.40;;;1.50;;
57891;SDS011;43708;48.828;9.166;2023-03-26T10:54:53;3.22;;;1.80;;
57891;SDS011;43708;48.828;9.166;2023-03-26T11:00:20;2.10;;;1.65;;
57891;SDS011;43708;48.828;9.166;2023-03-26T11:05:43;2.40;;;1.52;;
57891;SDS011;43708;48.828;9.166;2023-03-26T11:19:10;2.95;;;1.85;;
57891;SDS011;43708;48.828;9.166;2023-03-26T11:21:47;2.45;;;1.80;;
57891;SDS011;43708;48.828;9.166;2023-03-26T11:26:57;4.45;;;2.15;;
57891;SDS011;43708;48.828;9.166;2023-03-26T11:34:43;3.60;;;2.28;;
57891;SDS011;43708;48.828;9.166;2023-03-26T11:37:14;3.42;;;1.92;;
57891;SDS011;43708;48.828;9.166;2023-03-26T11:39:50;3.00;;;2.03;;
57891;SDS011;43708;48.828;9.166;2023-03-26T11:42:20;2.58;;;1.95;;
57891;SDS011;43708;48.828;9.166;2023-03-26T11:44:54;3.15;;;1.95;;
57891;SDS011;43708;48.828;9.166;2023-03-26T11:47:42;2.65;;;2.10;;
57891;SDS011;43708;48.828;9.166;2023-03-26T11:50:15;2.60;;;1.92;;
57891;SDS011;43708;48.828;9.166;2023-03-26T11:52:49;4.20;;;1.90;;
57891;SDS011;43708;48.828;9.166;2023-03-26T11:55:14;2.22;;;1.85;;
57891;SDS011;43708;48.828;9.166;2023-03-26T11:57:41;4.30;;;1.70;;
57891;SDS011;43708;48.828;9.166;2023-03-26T12:00:18;3.33;;;1.65;;
57891;SDS011;43708;48.828;9.166;2023-03-26T12:02:54;3.00;;;1.88;;
57891;SDS011;43708;48.828;9.166;2023-03-26T12:05:22;2.47;;;1.70;;
57891;SDS011;43708;48.828;9.166;2023-03-26T12:07:55;2.33;;;2.00;;
57891;SDS011;43708;48.828;9.166;2023-03-26T12:10:32;2.08;;;1.55;;
57891;SDS011;43708;48.828;9.166;2023-03-26T12:13:02;3.22;;;1.90;;
57891;SDS011;43708;48.828;9.166;2023-03-26T12:15:41;2.55;;;1.77;;
57891;SDS011;43708;48.828;9.166;2023-03-26T12:21:11;2.25;;;1.60;;
57891;SDS011;43708;48.828;9.166;2023-03-26T12:26:39;2.38;;;1.52;;
57891;SDS011;43708;48.828;9.166;2023-03-26T12:29:08;2.63;;;1.60;;
57891;SDS011;43708;48.828;9.166;2023-03-26T12:31:40;2.75;;;1.50;;
57891;SDS011;43708;48.828;9.166;2023-03-26T12:34:13;1.83;;;1.30;;
57891;SDS011;43708;48.828;9.166;2023-03-26T12:36:46;2.17;;;1.55;;
57891;SDS011;43708;48.828;9.166;2023-03-26T12:41:59;2.15;;;1.40;;
57891;SDS011;43708;48.828;9.166;2023-03-26T12:44:37;3.17;;;1.60;;
57891;SDS011;43708;48.828;9.166;2023-03-26T12:47:30;2.67;;;1.60;;
57891;SDS011;43708;48.828;9.166;2023-03-26T12:49:56;2.13;;;1.40;;
57891;SDS011;43708;48.828;9.166;2023-03-26T12:58:14;1.17;;;1.08;;
57891;SDS011;43708;48.828;9.166;2023-03-26T13:06:33;2.17;;;1.38;;
57891;SDS011;43708;48.828;9.166;2023-03-26T13:20:21;1.35;;;1.25;;
57891;SDS011;43708;48.828;9.166;2023-03-26T13:22:56;1.60;;;1.20;;
57891;SDS011;43708;48.828;9.166;2023-03-26T13:25:32;1.83;;;1.08;;
57891;SDS011;43708;48.828;9.166;2023-03-26T13:36:19;1.88;;;1.30;;
57891;SDS011;43708;48.828;9.166;2023-03-26T13:41:16;2.25;;;1.25;;
57891;SDS011;43708;48.828;9.166;2023-03-26T13:46:48;2.33;;;1.10;;
57891;SDS011;43708;48.828;9.166;2023-03-26T13:49:24;2.00;;;1.23;;
57891;SDS011;43708;48.828;9.166;2023-03-26T13:51:58;1.85;;;1.13;;
57891;SDS011;43708;48.828;9.166;2023-03-26T13:57:11;1.38;;;1.20;;
57891;SDS011;43708;48.828;9.166;2023-03-26T14:02:18;1.48;;;1.20;;
57891;SDS011;43708;48.828;9.166;2023-03-26T14:04:49;1.75;;;1.05;;
57891;SDS011;43708;48.828;9.166;2023-03-26T14:07:26;2.25;;;1.15;;
57891;SDS011;43708;48.828;9.166;2023-03-26T14:10:15;1.55;;;1.05;;
57891;SDS011;43708;48.828;9.166;2023-03-26T14:15:45;1.50;;;1.00;;
57891;SDS011;43708;48.828;9.166;2023-03-26T14:21:01;2.40;;;1.30;;
57891;SDS011;43708;48.828;9.166;2023-03-26T14:34:49;1.85;;;1.00;;
57891;SDS011;43708;48.828;9.166;2023-03-26T14:46:02;1.30;;;0.93;;
57891;SDS011;43708;48.828;9.166;2023-03-26T14:48:42;2.17;;;1.27;;
57891;SDS011;43708;48.828;9.166;2023-03-26T14:54:15;1.08;;;0.82;;
57891;SDS011;43708;48.828;9.166;2023-03-26T15:08:01;1.30;;;0.80;;
57891;SDS011;43708;48.828;9.166;2023-03-26T15:13:40;0.88;;;0.77;;
57891;SDS011;43708;48.828;9.166;2023-03-26T15:17:09;1.20;;;0.90;;
57891;SDS011;43708;48.828;9.166;2023-03-26T15:24:42;0.70;;;0.70;;
57891;SDS011;43708;48.828;9.166;2023-03-26T15:27:44;1.05;;;0.90;;
57891;SDS011;43708;48.828;9.166;2023-03-26T15:49:29;0.75;;;0.47;;
57891;SDS011;43708;48.828;9.166;2023-03-26T15:58:12;0.70;;;0.40;;
57891;SDS011;43708;48.828;9.166;2023-03-26T16:00:52;0.90;;;0.70;;
57891;SDS011;43708;48.828;9.166;2023-03-26T16:03:40;0.95;;;0.52;;
57891;SDS011;43708;48.828;9.166;2023-03-26T16:11:53;1.33;;;0.63;;
57891;SDS011;43708;48.828;9.166;2023-03-26T16:18:14;0.68;;;0.50;;
57891;SDS011;43708;48.828;9.166;2023-03-26T16:20:53;1.55;;;0.90;;
57891;SDS011;43708;48.828;9.166;2023-03-26T16:28:33;0.90;;;0.52;;
57891;SDS011;43708;48.828;9.166;2023-03-26T16:31:03;1.38;;;0.57;;
57891;SDS011;43708;48.828;9.166;2023-03-26T16:41:32;1.33;;;0.60;;
57891;SDS011;43708;48.828;9.166;2023-03-26T16:49:25;0.57;;;0.50;;
57891;SDS011;43708;48.828;9.166;2023-03-26T16:52:01;1.08;;;0.70;;
57891;SDS011;43708;48.828;9.166;2023-03-26T17:08:47;0.50;;;0.40;;
57891;SDS011;43708;48.828;9.166;2023-03-26T17:16:45;0.93;;;0.40;;
57891;SDS011;43708;48.828;9.166;2023-03-26T17:21:55;0.70;;;0.57;;
57891;SDS011;43708;48.828;9.166;2023-03-26T17:24:53;0.45;;;0.40;;
57891;SDS011;43708;48.828;9.166;2023-03-26T17:30:46;0.50;;;0.40;;
57891;SDS011;43708;48.828;9.166;2023-03-26T17:33:26;0.50;;;0.50;;
57891;SDS011;43708;48.828;9.166;2023-03-26T17:41:08;0.50;;;0.40;;
57891;SDS011;43708;48.828;9.166;2023-03-26T17:54:31;0.75;;;0.52;;
57891;SDS011;43708;48.828;9.166;2023-03-26T17:57:06;0.77;;;0.50;;
57891;SDS011;43708;48.828;9.166;2023-03-26T17:59:46;0.50;;;0.50;;
57891;SDS011;43708;48.828;9.166;2023-03-26T18:02:35;0.40;;;0.40;;
57891;SDS011;43708;48.828;9.166;2023-03-26T18:05:07;0.50;;;0.30;;
57891;SDS011;43708;48.828;9.166;2023-03-26T18:13:36;0.50;;;0.50;;
57891;SDS011;43708;48.828;9.166;2023-03-26T18:21:20;0.50;;;0.50;;
57891;SDS011;43708;48.828;9.166;2023-03-26T18:24:04;0.40;;;0.40;;
57891;SDS011;43708;48.828;9.166;2023-03-26T18:26:39;1.05;;;0.40;;
57891;SDS011;43708;48.828;9.166;2023-03-26T18:29:29;0.40;;;0.40;;
57891;SDS011;43708;48.828;9.166;2023-03-26T18:34:38;0.50;;;0.43;;
57891;SDS011;43708;48.828;9.166;2023-03-26T18:37:17;0.50;;;0.43;;
57891;SDS011;43708;48.828;9.166;2023-03-26T18:42:26;0.90;;;0.38;;
57891;SDS011;43708;48.828;9.166;2023-03-26T18:44:54;0.40;;;0.30;;
57891;SDS011;43708;48.828;9.166;2023-03-26T18:47:21;0.38;;;0.38;;
57891;SDS011;43708;48.828;9.166;2023-03-26T18:49:48;0.30;;;0.30;;
57891;SDS011;43708;48.828;9.166;2023-03-26T18:52:18;0.70;;;0.50;;
57891;SDS011;43708;48.828;9.166;2023-03-26T18:54:48;1.15;;;0.45;;
57891;SDS011;43708;48.828;9.166;2023-03-26T18:57:23;0.50;;;0.40;;
57891;SDS011;43708;48.828;9.166;2023-03-26T18:59:51;0.73;;;0.50;;
57891;SDS011;43708;48.828;9.166;2023-03-26T19:02:19;0.52;;;0.40;;
57891;SDS011;43708;48.828;9.166;2023-03-26T19:04:45;0.98;;;0.40;;
57891;SDS011;43708;48.828;9.166;2023-03-26T19:07:15;0.30;;;0.30;;
57891;SDS011;43708;48.828;9.166;2023-03-26T19:09:46;0.65;;;0.50;;
57891;SDS011;43708;48.828;9.166;2023-03-26T19:12:20;0.50;;;0.40;;
57891;SDS011;43708;48.828;9.166;2023-03-26T19:17:32;0.60;;;0.40;;
57891;SDS011;43708;48.828;9.166;2023-03-26T19:20:17;0.60;;;0.40;;
57891;SDS011;43708;48.828;9.166;2023-03-26T19:22:46;1.15;;;0.52;;
57891;SDS011;43708;48.828;9.166;2023-03-26T19:25:29;0.50;;;0.40;;
57891;SDS011;43708;48.828;9.166;2023-03-26T19:28:04;0.40;;;0.38;;
57891;SDS011;43708;48.828;9.166;2023-03-26T19:30:31;0.45;;;0.40;;
57891;SDS011;43708;48.828;9.166;2023-03-26T19:33:03;0.38;;;0.30;;
57891;SDS011;43708;48.828;9.166;2023-03-26T19:35:37;0.60;;;0.38;;
57891;SDS011;43708;48.828;9.166;2023-03-26T19:38:20;0.50;;;0.30;;
57891;SDS011;43708;48.828;9.166;2023-03-26T19:40:49;0.45;;;0.38;;
57891;SDS011;43708;48.828;9.166;2023-03-26T19:43:16;0.30;;;0.30;;
57891;SDS011;43708;48.828;9.166;2023-03-26T19:45:42;0.57;;;0.30;;
57891;SDS011;43708;48.828;9.166;2023-03-26T19:48:09;0.57;;;0.50;;
57891;SDS011;43708;48.828;9.166;2023-03-26T19:50:41;0.82;;;0.60;;
57891;SDS011;43708;48.828;9.166;2023-03-26T19:53:22;1.17;;;0.70;;
57891;SDS011;43708;48.828;9.166;2023-03-26T19:55:57;0.57;;;0.50;;
57891;SDS011;43708;48.828;9.166;2023-03-26T19:58:27;0.60;;;0.50;;
57891;SDS011;43708;48.828;9.166;2023-03-26T20:00:53;0.70;;;0.50;;
57891;SDS011;43708;48.828;9.166;2023-03-26T20:03:24;0.70;;;0.70;;
57891;SDS011;43708;48.828;9.166;2023-03-26T20:05:53;1.00;;;0.50;;
57891;SDS011;43708;48.828;9.166;2023-03-26T20:08:18;1.45;;;0.50;;
57891;SDS011;43708;48.828;9.166;2023-03-26T20:10:50;0.43;;;0.43;;
57891;SDS011;43708;48.828;9.166;2023-03-26T20:13:16;2.13;;;0.68;;
57891;SDS011;43708;48.828;9.166;2023-03-26T20:15:47;0.60;;;0.50;;
57891;SDS011;43708;48.828;9.166;2023-03-26T20:18:37;0.90;;;0.52;;
57891;SDS011;43708;48.828;9.166;2023-03-26T20:21:11;0.40;;;0.30;;
57891;SDS011;43708;48.828;9.166;2023-03-26T20:23:38;0.63;;;0.60;;
57891;SDS011;43708;48.828;9.166;2023-03-26T20:26:04;0.85;;;0.60;;
57891;SDS011;43708;48.828;9.166;2023-03-26T20:28:33;0.70;;;0.60;;
57891;SDS011;43708;48.828;9.166;2023-03-26T20:30:59;0.47;;;0.40;;
57891;SDS011;43708;48.828;9.166;2023-03-26T20:33:25;0.95;;;0.70;;
57891;SDS011;43708;48.828;9.166;2023-03-26T20:35:54;0.50;;;0.40;;
57891;SDS011;43708;48.828;9.166;2023-03-26T20:38:21;0.57;;;0.40;;
57891;SDS011;43708;48.828;9.166;2023-03-26T20:40:49;0.60;;;0.50;;
57891;SDS011;43708;48.828;9.166;2023-03-26T20:43:16;0.50;;;0.40;;
57891;SDS011;43708;48.828;9.166;2023-03-26T20:45:42;0.50;;;0.50;;
57891;SDS011;43708;48.828;9.166;2023-03-26T20:48:09;0.60;;;0.40;;
57891;SDS011;43708;48.828;9.166;2023-03-26T20:50:35;0.40;;;0.40;;
57891;SDS011;43708;48.828;9.166;2023-03-26T20:53:02;1.17;;;0.60;;
57891;SDS011;43708;48.828;9.166;2023-03-26T20:55:28;0.88;;;0.55;;
57891;SDS011;43708;48.828;9.166;2023-03-26T20:57:54;0.50;;;0.40;;
57891;SDS011;43708;48.828;9.166;2023-03-26T21:00:20;0.50;;;0.40;;